Albertville, Minnesota
Current Conditions -  °F | °C
As of 12:34 AM on Saturday 20 Dec 2014 (Local Time) from KCFE Reporting Station
Haze Haze  
Wind Chill: -5°   Ceiling: 700
Heat Index: -1°   Visibility: 4mi
Dew Point: -2°   Wind: 7mph
Humidity: 92%   Direction: 150°SSE
Pressure: 30.14"   Gusts: NA
Location:  45.24°N, 93.65°W
Report Text: KCFE 200634Z AUTO 15006KT 4SM BR OVC007 M01/M02 A3014 RMK AO2 T10111023
Loading
Personal Weather Stations






























Interactive Weather Map New forecast layout! Learn more

10-Day Weather Forecast

Advertisements
Track Severe Weather on mobile